Airfield :
LOGIN :

Register | Disclaimer

   EN    FR    IT 

 










Legend :    VFR   Marginal VFR   IFR   Intensive IFR   Very Intensive IFR
Visi :
Ceiling :
>= 8 km
>= 3000ft
5 to 8 km
1000 to 3000 ft
1500m to 5 km
500 to 1000 ft
800 to 1500m
200 to 500 ft
< 800m
< 200 ft
Symbols :   Thunderstorms  Fog  Heavy snow  Heavy precipitations  Wind > 20 kt
SIGMETs :     Misc.  Thunderstorms  Icing  Turbulence  Mountain Waves  Volcanic Ashes






- Airport Elevation : 16 ft
- IATA code : SDR


LEXJ - Santander Cantabria

CURRENT METAR :
  • 071630Z 05004KT 010V100 9999 OVC036 16/13 Q1018

EXPIRED METARs :
  • 071600Z 05007KT 340V100 9999 OVC037 16/13 Q1018
  • 071530Z 05008KT 360V110 9999 OVC034 16/13 Q1018
  • 071500Z 05007KT 360V100 9999 BKN032 17/13 Q1018
  • 071430Z 05006KT 360V120 9999 BKN030 17/13 Q1018

TAF TAF LEXJ
Valid from the 07 at 15:00 until the 08 at 15:00 UTC


071400Z 0715/0815 10006KT 9999 FEW025 SCT040 TX23/0813Z TN10/0805Z
PROB40
TEMPO 0715/0717 04010KT
PROB30
TEMPO 0802/0805 4000 BR
PROB40
TEMPO 0812/0815 35010KT
PROB30
TEMPO 0813/0815 29010KT 4800 BR



MET'MAP, your aeronautical weather chart ! - Copyright ORBIFLY December 2007 - Disclaimer

ORBIFLY MET'MAP TEAM :

Programming & Development : Alexandra Zaïnal
Concept & original design : Baudouin d'Aumeries
Assistance for programming : Marc-Olivier Méhu
Technical & hardware support : Manuel Goepfert

Contact : metmap@orbifly.com




SOURCES & CREDITS :

   NOAA